createdAt,value
2023-03-01T16:25:01.309Z,102567.78
2023-03-01T16:27:27.906Z,102569.03
2023-03-01T16:29:55.469Z,102561.78
2023-03-01T16:32:22.143Z,102569.06
2023-03-01T16:34:50.261Z,102559.75
2023-03-01T16:37:18.421Z,102557.88
2023-03-01T16:39:45.018Z,102558.22
2023-03-01T16:42:11.484Z,102561.28
2023-03-01T16:44:37.912Z,102560.69
2023-03-01T16:47:04.412Z,102564.41
2023-03-01T16:49:30.892Z,102565.50
2023-03-01T16:51:57.676Z,102563.06
2023-03-01T16:54:24.208Z,102571.88
2023-03-01T16:56:50.658Z,102570.31
2023-03-01T16:59:19.234Z,102574.66
2023-03-01T17:01:45.956Z,102574.75
2023-03-01T17:04:13.048Z,102578.25
2023-03-01T17:06:40.081Z,102581.75
2023-03-01T17:09:06.583Z,102575.88
2023-03-01T17:11:33.401Z,102579.38
2023-03-01T17:14:00.340Z,102575.09
2023-03-01T17:16:29.248Z,102573.41
2023-03-01T17:18:55.875Z,102566.56
2023-03-01T17:21:22.442Z,102570.94
2023-03-01T17:23:50.998Z,102567.53
2023-03-01T17:26:17.965Z,102571.06
2023-03-01T17:28:47.188Z,102573.69
2023-03-01T17:31:13.849Z,102577.16
2023-03-01T17:33:41.082Z,102578.91
2023-03-01T17:36:09.937Z,102562.53
2023-03-01T17:38:38.586Z,102570.34
2023-03-01T17:41:05.712Z,102571.22
2023-03-01T17:43:37.405Z,102579.00
2023-03-01T17:46:04.589Z,102570.44
2023-03-01T17:48:34.643Z,102565.28
2023-03-01T17:51:10.006Z,102574.78
2023-03-01T17:53:37.085Z,102573.94
2023-03-01T17:56:08.641Z,102567.06
2023-03-01T17:58:35.335Z,102567.13
2023-03-01T18:01:20.463Z,102568.84
2023-03-01T18:03:54.096Z,102575.81
2023-03-01T18:06:24.250Z,102574.13
2023-03-01T18:08:54.799Z,102575.84
2023-03-01T18:11:25.290Z,102575.88
2023-03-01T18:13:56.961Z,102582.78
2023-03-01T18:16:23.578Z,102582.75
2023-03-01T18:18:55.167Z,102586.19
2023-03-01T18:21:26.141Z,102590.50
2023-03-01T18:23:59.871Z,102593.13
2023-03-01T18:26:30.594Z,102599.16
2023-03-01T18:29:05.104Z,102601.78
2023-03-01T18:31:37.366Z,102595.78
2023-03-01T18:34:05.114Z,102603.50
2023-03-01T18:36:37.576Z,102608.69
2023-03-01T18:39:10.518Z,102603.53
2023-03-01T18:41:37.549Z,102600.91
2023-03-01T18:44:09.549Z,102604.38
2023-03-01T18:46:48.523Z,102606.09
2023-03-01T18:49:19.034Z,102597.50
2023-03-01T18:51:45.906Z,102603.50
2023-03-01T18:54:15.429Z,102606.94
2023-03-01T18:56:44.016Z,102604.38
2023-03-01T18:59:20.597Z,102609.53
2023-03-01T19:01:51.047Z,102620.69
2023-03-01T19:04:20.964Z,102613.81
2023-03-01T19:06:49.205Z,102614.66
2023-03-01T19:09:24.565Z,102614.69
2023-03-01T19:12:03.635Z,102614.66
2023-03-01T19:14:30.653Z,102610.34
2023-03-01T19:17:04.319Z,102618.06
2023-03-01T19:19:38.257Z,102620.63
2023-03-01T19:22:13.986Z,102620.59
2023-03-01T19:24:40.673Z,102609.44
2023-03-01T19:27:10.007Z,102601.69
2023-03-01T19:29:41.001Z,102613.72
2023-03-01T19:32:08.632Z,102606.00
2023-03-01T19:34:40.009Z,102611.16
2023-03-01T19:37:09.229Z,102617.19
2023-03-01T19:39:36.636Z,102609.44
2023-03-01T19:42:08.828Z,102605.09
2023-03-01T19:44:40.763Z,102605.09
2023-03-01T19:47:12.381Z,102602.50
2023-03-01T19:49:43.275Z,102596.50
2023-03-01T19:52:17.628Z,102600.78
2023-03-01T19:54:47.515Z,102593.88
2023-03-01T19:57:14.722Z,102595.59
2023-03-01T19:59:47.570Z,102603.34
2023-03-01T20:02:14.283Z,102608.47
2023-03-01T20:04:41.210Z,102604.16
2023-03-01T20:07:07.733Z,102599.84
2023-03-01T20:09:41.615Z,102598.13
2023-03-01T20:12:15.592Z,102600.69
2023-03-01T20:15:05.206Z,102603.28
2023-03-01T20:17:31.788Z,102604.13
2023-03-01T20:20:07.221Z,102604.09
2023-03-01T20:22:35.960Z,102597.19
2023-03-01T20:25:06.440Z,102606.59
2023-03-01T20:27:35.782Z,102603.13
2023-03-01T20:30:05.102Z,102604.03
2023-03-01T20:32:33.890Z,102603.13
2023-03-01T20:35:01.636Z,102602.28
2023-03-01T20:37:32.820Z,102600.53
2023-03-01T20:40:03.568Z,102602.28
2023-03-01T20:42:30.229Z,102599.66
2023-03-01T20:44:58.184Z,102590.19
2023-03-01T20:47:25.249Z,102596.22
2023-03-01T20:49:52.841Z,102599.59
2023-03-01T20:52:21.136Z,102605.63
2023-03-01T20:54:53.870Z,102601.34
2023-03-01T20:57:24.223Z,102603.00
2023-03-01T20:59:59.052Z,102601.25
2023-03-01T21:02:28.360Z,102600.34
2023-03-01T21:05:05.898Z,102596.91
2023-03-01T21:07:33.035Z,102589.13
2023-03-01T21:10:12.503Z,102593.38
2023-03-01T21:12:40.399Z,102590.81
2023-03-01T21:15:28.641Z,102599.41
2023-03-01T21:18:02.695Z,102607.94
2023-03-01T21:20:34.232Z,102595.88
2023-03-01T21:23:04.679Z,102602.66
2023-03-01T21:25:37.016Z,102597.44
2023-03-01T21:28:06.688Z,102591.47
2023-03-01T21:30:34.880Z,102600.88
2023-03-01T21:33:05.132Z,102594.00
2023-03-01T21:35:33.480Z,102598.28
2023-03-01T21:38:05.179Z,102593.16
2023-03-01T21:40:32.913Z,102600.88
2023-03-01T21:43:00.439Z,102593.97
2023-03-01T21:45:35.018Z,102599.09
2023-03-01T21:48:06.068Z,102598.19
2023-03-01T21:50:35.834Z,102605.81
2023-03-01T21:53:27.785Z,102597.25
2023-03-01T21:55:55.131Z,102599.75
2023-03-01T21:58:23.576Z,102607.41
2023-03-01T22:00:55.198Z,102600.47
2023-03-01T22:03:24.617Z,102599.47
2023-03-01T22:05:59.938Z,102599.47
2023-03-01T22:08:28.486Z,102595.16
2023-03-01T22:10:56.366Z,102594.22
2023-03-01T22:13:24.471Z,102600.25
2023-03-01T22:15:54.978Z,102592.50
2023-03-01T22:18:21.568Z,102601.03
2023-03-01T22:20:52.244Z,102601.88
2023-03-01T22:23:23.823Z,102603.50
2023-03-01T22:25:52.397Z,102599.16
2023-03-01T22:28:25.547Z,102596.56
2023-03-01T22:30:52.274Z,102593.97
2023-03-01T22:33:26.789Z,102595.69
2023-03-01T22:35:58.590Z,102599.19
2023-03-01T22:38:27.638Z,102606.88
2023-03-01T22:41:03.323Z,102611.19
2023-03-01T22:43:39.119Z,102611.19
2023-03-01T22:46:27.797Z,102612.88
2023-03-01T22:49:02.197Z,102611.13
2023-03-01T22:51:35.032Z,102603.44
2023-03-01T22:54:05.148Z,102605.09
2023-03-01T22:56:38.949Z,102607.63
2023-03-01T22:59:17.929Z,102604.28
2023-03-01T23:01:48.689Z,102606.88
2023-03-01T23:04:18.202Z,102605.13
2023-03-01T23:06:51.865Z,102608.50
2023-03-01T23:09:21.922Z,102604.25
2023-03-01T23:11:59.684Z,102599.03
2023-03-01T23:14:32.995Z,102602.44
2023-03-01T23:17:07.535Z,102602.34
2023-03-01T23:19:36.270Z,102602.41
2023-03-01T23:22:06.689Z,102602.41
2023-03-01T23:24:35.295Z,102607.63
2023-03-01T23:29:47.128Z,102607.66
2023-03-01T23:32:18.587Z,102617.97
2023-03-01T23:34:46.319Z,102605.94
2023-03-01T23:37:16.276Z,102600.78
2023-03-01T23:39:48.662Z,102587.91
2023-03-01T23:42:15.257Z,102597.31
2023-03-01T23:44:47.856Z,102600.75
2023-03-01T23:47:14.635Z,102599.03
2023-03-01T23:49:43.365Z,102594.72
2023-03-01T23:52:18.709Z,102597.31
2023-03-01T23:54:49.136Z,102593.91
2023-03-01T23:57:17.674Z,102585.31
2023-03-01T23:59:45.545Z,102589.53
